sensor_id;sensor_type;location;lat;lon;timestamp;temperature;humidity
1307;DHT22;646;48.696;9.114;2023-02-28T00:00:34;-1.80;70.70
1307;DHT22;646;48.696;9.114;2023-02-28T00:02:59;-1.50;71.30
1307;DHT22;646;48.696;9.114;2023-02-28T00:05:26;-1.60;71.20
1307;DHT22;646;48.696;9.114;2023-02-28T00:07:52;-1.70;71.40
1307;DHT22;646;48.696;9.114;2023-02-28T00:10:20;-1.70;71.90
1307;DHT22;646;48.696;9.114;2023-02-28T00:12:50;-1.80;72.10
1307;DHT22;646;48.696;9.114;2023-02-28T00:15:17;-1.90;71.90
1307;DHT22;646;48.696;9.114;2023-02-28T00:17:43;-1.90;70.70
1307;DHT22;646;48.696;9.114;2023-02-28T00:20:09;-1.80;72.70
1307;DHT22;646;48.696;9.114;2023-02-28T00:22:39;-1.60;72.90
1307;DHT22;646;48.696;9.114;2023-02-28T00:25:05;-1.90;72.80
1307;DHT22;646;48.696;9.114;2023-02-28T00:27:32;-1.80;73.60
1307;DHT22;646;48.696;9.114;2023-02-28T00:29:58;-1.70;73.80
1307;DHT22;646;48.696;9.114;2023-02-28T00:32:23;-2.20;72.30
1307;DHT22;646;48.696;9.114;2023-02-28T00:34:49;-1.70;74.10
1307;DHT22;646;48.696;9.114;2023-02-28T00:37:15;-1.80;74.60
1307;DHT22;646;48.696;9.114;2023-02-28T00:39:40;-2.10;74.80
1307;DHT22;646;48.696;9.114;2023-02-28T00:42:07;-1.90;75.20
1307;DHT22;646;48.696;9.114;2023-02-28T00:44:33;-2.10;75.30
1307;DHT22;646;48.696;9.114;2023-02-28T00:46:59;-2.00;75.50
1307;DHT22;646;48.696;9.114;2023-02-28T00:49:26;-2.20;75.40
1307;DHT22;646;48.696;9.114;2023-02-28T00:51:53;-2.20;75.60
1307;DHT22;646;48.696;9.114;2023-02-28T00:54:19;-2.10;76.40
1307;DHT22;646;48.696;9.114;2023-02-28T00:56:45;-2.30;76.60
1307;DHT22;646;48.696;9.114;2023-02-28T00:59:11;-2.00;77.10
1307;DHT22;646;48.696;9.114;2023-02-28T01:01:37;-2.00;77.30
1307;DHT22;646;48.696;9.114;2023-02-28T01:04:02;-2.10;77.40
1307;DHT22;646;48.696;9.114;2023-02-28T01:06:28;-2.40;77.40
1307;DHT22;646;48.696;9.114;2023-02-28T01:08:54;-2.20;77.70
1307;DHT22;646;48.696;9.114;2023-02-28T01:11:19;-2.10;78.60
1307;DHT22;646;48.696;9.114;2023-02-28T01:13:46;-2.30;79.10
1307;DHT22;646;48.696;9.114;2023-02-28T01:16:12;-2.40;78.90
1307;DHT22;646;48.696;9.114;2023-02-28T01:18:38;-2.10;79.80
1307;DHT22;646;48.696;9.114;2023-02-28T01:21:05;-2.30;79.70
1307;DHT22;646;48.696;9.114;2023-02-28T01:23:31;-2.10;80.20
1307;DHT22;646;48.696;9.114;2023-02-28T01:25:57;-2.10;80.80
1307;DHT22;646;48.696;9.114;2023-02-28T01:28:23;-2.30;80.70
1307;DHT22;646;48.696;9.114;2023-02-28T01:30:49;-2.20;81.10
1307;DHT22;646;48.696;9.114;2023-02-28T01:33:15;-2.10;81.20
1307;DHT22;646;48.696;9.114;2023-02-28T01:35:41;-2.20;81.80
1307;DHT22;646;48.696;9.114;2023-02-28T01:38:06;-2.30;82.10
1307;DHT22;646;48.696;9.114;2023-02-28T01:40:32;-2.00;82.90
1307;DHT22;646;48.696;9.114;2023-02-28T01:42:58;-2.20;83.30
1307;DHT22;646;48.696;9.114;2023-02-28T01:45:31;-2.20;83.40
1307;DHT22;646;48.696;9.114;2023-02-28T01:48:02;-2.40;83.80
1307;DHT22;646;48.696;9.114;2023-02-28T01:50:32;-2.50;84.40
1307;DHT22;646;48.696;9.114;2023-02-28T01:53:01;-2.30;85.20
1307;DHT22;646;48.696;9.114;2023-02-28T01:55:28;-2.40;86.30
1307;DHT22;646;48.696;9.114;2023-02-28T01:57:56;-2.20;87.50
1307;DHT22;646;48.696;9.114;2023-02-28T02:00:25;-2.50;87.90
1307;DHT22;646;48.696;9.114;2023-02-28T02:02:55;-2.50;88.00
1307;DHT22;646;48.696;9.114;2023-02-28T02:05:25;-2.40;88.80
1307;DHT22;646;48.696;9.114;2023-02-28T02:07:54;-2.60;89.20
1307;DHT22;646;48.696;9.114;2023-02-28T02:10:39;-2.20;90.10
1307;DHT22;646;48.696;9.114;2023-02-28T02:29:44;-2.50;92.10
1307;DHT22;646;48.696;9.114;2023-02-28T02:32:28;-2.50;92.40
1307;DHT22;646;48.696;9.114;2023-02-28T02:40:18;-2.50;93.60
1307;DHT22;646;48.696;9.114;2023-02-28T02:42:50;-2.20;93.90
1307;DHT22;646;48.696;9.114;2023-02-28T02:47:45;-2.10;94.60
1307;DHT22;646;48.696;9.114;2023-02-28T02:50:19;-1.90;94.60
1307;DHT22;646;48.696;9.114;2023-02-28T02:52:51;-1.60;94.70
1307;DHT22;646;48.696;9.114;2023-02-28T02:55:18;-1.60;95.10
1307;DHT22;646;48.696;9.114;2023-02-28T02:57:55;-1.70;95.00
1307;DHT22;646;48.696;9.114;2023-02-28T03:00:28;-1.50;94.90
1307;DHT22;646;48.696;9.114;2023-02-28T03:02:56;-1.80;94.60
1307;DHT22;646;48.696;9.114;2023-02-28T03:05:49;-1.50;94.50
1307;DHT22;646;48.696;9.114;2023-02-28T03:08:15;-1.40;94.50
1307;DHT22;646;48.696;9.114;2023-02-28T03:10:46;-1.50;94.70
1307;DHT22;646;48.696;9.114;2023-02-28T03:24:23;-1.30;94.50
1307;DHT22;646;48.696;9.114;2023-02-28T03:26:56;-1.40;94.50
1307;DHT22;646;48.696;9.114;2023-02-28T03:29:35;-1.60;94.60
1307;DHT22;646;48.696;9.114;2023-02-28T03:32:12;-1.40;94.80
1307;DHT22;646;48.696;9.114;2023-02-28T03:34:50;-1.70;95.20
1307;DHT22;646;48.696;9.114;2023-02-28T03:37:21;-1.40;96.00
1307;DHT22;646;48.696;9.114;2023-02-28T03:39:53;-1.50;96.30
1307;DHT22;646;48.696;9.114;2023-02-28T03:42:29;-1.50;96.60
1307;DHT22;646;48.696;9.114;2023-02-28T03:44:57;-1.40;96.60
1307;DHT22;646;48.696;9.114;2023-02-28T03:50:20;-1.30;96.70
1307;DHT22;646;48.696;9.114;2023-02-28T03:53:02;-1.40;96.50
1307;DHT22;646;48.696;9.114;2023-02-28T03:55:33;-1.20;96.40
1307;DHT22;646;48.696;9.114;2023-02-28T03:58:22;-1.20;96.40
1307;DHT22;646;48.696;9.114;2023-02-28T04:00:56;-1.10;96.50
1307;DHT22;646;48.696;9.114;2023-02-28T04:03:24;-1.20;96.50
1307;DHT22;646;48.696;9.114;2023-02-28T04:05:54;-1.10;96.50
1307;DHT22;646;48.696;9.114;2023-02-28T04:08:22;-1.10;96.70
1307;DHT22;646;48.696;9.114;2023-02-28T04:10:53;-1.10;96.70
1307;DHT22;646;48.696;9.114;2023-02-28T04:13:20;-0.90;96.90
1307;DHT22;646;48.696;9.114;2023-02-28T04:15:46;-1.00;96.80
1307;DHT22;646;48.696;9.114;2023-02-28T04:18:11;-0.90;96.90
1307;DHT22;646;48.696;9.114;2023-02-28T04:20:37;-1.20;96.40
1307;DHT22;646;48.696;9.114;2023-02-28T04:23:02;-1.00;96.80
1307;DHT22;646;48.696;9.114;2023-02-28T04:25:28;-1.00;96.70
1307;DHT22;646;48.696;9.114;2023-02-28T04:27:53;-0.90;96.80
1307;DHT22;646;48.696;9.114;2023-02-28T04:30:19;-0.90;96.80
1307;DHT22;646;48.696;9.114;2023-02-28T04:32:44;-0.80;96.80
1307;DHT22;646;48.696;9.114;2023-02-28T04:35:10;-0.80;96.70
1307;DHT22;646;48.696;9.114;2023-02-28T04:37:35;-1.00;96.70
1307;DHT22;646;48.696;9.114;2023-02-28T04:40:02;-1.00;96.70
1307;DHT22;646;48.696;9.114;2023-02-28T04:42:28;-0.70;96.60
1307;DHT22;646;48.696;9.114;2023-02-28T04:45:03;-0.70;96.20
1307;DHT22;646;48.696;9.114;2023-02-28T04:47:29;-0.90;96.50
1307;DHT22;646;48.696;9.114;2023-02-28T04:49:55;-0.70;96.50
1307;DHT22;646;48.696;9.114;2023-02-28T04:52:20;-0.80;96.20
1307;DHT22;646;48.696;9.114;2023-02-28T04:54:46;-0.90;96.20
1307;DHT22;646;48.696;9.114;2023-02-28T04:57:12;-0.60;96.30
1307;DHT22;646;48.696;9.114;2023-02-28T04:59:37;-0.70;96.10
1307;DHT22;646;48.696;9.114;2023-02-28T05:02:03;-0.50;96.40
1307;DHT22;646;48.696;9.114;2023-02-28T05:04:35;-0.60;95.80
1307;DHT22;646;48.696;9.114;2023-02-28T05:07:02;-0.60;95.80
1307;DHT22;646;48.696;9.114;2023-02-28T05:09:28;-0.60;96.00
1307;DHT22;646;48.696;9.114;2023-02-28T05:11:54;-0.70;96.00
1307;DHT22;646;48.696;9.114;2023-02-28T05:14:20;-0.60;95.90
1307;DHT22;646;48.696;9.114;2023-02-28T05:16:46;-0.80;95.90
1307;DHT22;646;48.696;9.114;2023-02-28T05:19:11;-0.70;96.50
1307;DHT22;646;48.696;9.114;2023-02-28T05:21:51;-0.80;96.50
1307;DHT22;646;48.696;9.114;2023-02-28T05:24:18;-0.70;96.60
1307;DHT22;646;48.696;9.114;2023-02-28T05:26:48;-0.60;96.50
1307;DHT22;646;48.696;9.114;2023-02-28T05:29:14;-0.50;96.70
1307;DHT22;646;48.696;9.114;2023-02-28T05:31:40;-0.60;96.10
1307;DHT22;646;48.696;9.114;2023-02-28T05:34:06;-0.60;96.70
1307;DHT22;646;48.696;9.114;2023-02-28T05:36:31;-0.70;96.90
1307;DHT22;646;48.696;9.114;2023-02-28T05:38:57;-0.70;96.80
1307;DHT22;646;48.696;9.114;2023-02-28T05:41:22;-0.70;97.00
1307;DHT22;646;48.696;9.114;2023-02-28T05:43:48;-0.60;97.40
1307;DHT22;646;48.696;9.114;2023-02-28T05:46:14;-0.60;97.60
1307;DHT22;646;48.696;9.114;2023-02-28T05:48:41;-0.80;97.70
1307;DHT22;646;48.696;9.114;2023-02-28T05:51:08;-0.60;98.00
1307;DHT22;646;48.696;9.114;2023-02-28T05:53:35;-0.70;98.20
1307;DHT22;646;48.696;9.114;2023-02-28T05:56:00;-0.70;98.80
1307;DHT22;646;48.696;9.114;2023-02-28T05:58:26;-0.60;98.30
1307;DHT22;646;48.696;9.114;2023-02-28T06:00:59;-0.50;98.40
1307;DHT22;646;48.696;9.114;2023-02-28T06:03:25;-0.70;98.50
1307;DHT22;646;48.696;9.114;2023-02-28T06:05:51;-0.70;98.60
1307;DHT22;646;48.696;9.114;2023-02-28T06:08:16;-0.40;98.80
1307;DHT22;646;48.696;9.114;2023-02-28T06:10:42;-0.50;98.70
1307;DHT22;646;48.696;9.114;2023-02-28T06:13:07;-0.50;98.60
1307;DHT22;646;48.696;9.114;2023-02-28T06:15:33;-0.70;98.40
1307;DHT22;646;48.696;9.114;2023-02-28T06:17:59;-0.80;98.70
1307;DHT22;646;48.696;9.114;2023-02-28T06:20:26;-0.50;99.20
1307;DHT22;646;48.696;9.114;2023-02-28T06:22:55;-0.60;99.30
1307;DHT22;646;48.696;9.114;2023-02-28T06:25:21;-0.30;99.40
1307;DHT22;646;48.696;9.114;2023-02-28T06:27:47;-0.70;99.80
1307;DHT22;646;48.696;9.114;2023-02-28T06:30:13;-0.60;99.90
1307;DHT22;646;48.696;9.114;2023-02-28T06:32:39;-0.50;99.90
1307;DHT22;646;48.696;9.114;2023-02-28T06:35:05;-0.60;99.90
1307;DHT22;646;48.696;9.114;2023-02-28T06:37:31;-0.60;99.90
1307;DHT22;646;48.696;9.114;2023-02-28T06:39:57;-0.60;99.90
1307;DHT22;646;48.696;9.114;2023-02-28T06:42:24;-0.70;99.90
1307;DHT22;646;48.696;9.114;2023-02-28T06:44:54;-0.50;99.70
1307;DHT22;646;48.696;9.114;2023-02-28T06:47:20;-0.40;99.70
1307;DHT22;646;48.696;9.114;2023-02-28T06:49:46;-0.50;99.60
1307;DHT22;646;48.696;9.114;2023-02-28T06:52:11;-0.50;99.90
1307;DHT22;646;48.696;9.114;2023-02-28T06:54:37;-0.60;99.80
1307;DHT22;646;48.696;9.114;2023-02-28T06:57:02;-0.40;99.50
1307;DHT22;646;48.696;9.114;2023-02-28T06:59:28;-0.40;99.00
1307;DHT22;646;48.696;9.114;2023-02-28T07:01:54;-0.40;99.00
1307;DHT22;646;48.696;9.114;2023-02-28T07:04:20;-0.30;98.50
1307;DHT22;646;48.696;9.114;2023-02-28T07:06:46;-0.10;97.70
1307;DHT22;646;48.696;9.114;2023-02-28T07:09:11;-0.40;97.40
1307;DHT22;646;48.696;9.114;2023-02-28T07:11:37;-0.30;97.20
1307;DHT22;646;48.696;9.114;2023-02-28T07:14:03;-0.30;97.40
1307;DHT22;646;48.696;9.114;2023-02-28T07:16:28;0.00;97.50
1307;DHT22;646;48.696;9.114;2023-02-28T07:18:54;-0.20;97.10
1307;DHT22;646;48.696;9.114;2023-02-28T07:21:20;-0.30;96.60
1307;DHT22;646;48.696;9.114;2023-02-28T07:23:46;-0.20;96.40
1307;DHT22;646;48.696;9.114;2023-02-28T07:26:14;0.20;96.20
1307;DHT22;646;48.696;9.114;2023-02-28T07:28:41;-0.10;95.70
1307;DHT22;646;48.696;9.114;2023-02-28T07:31:08;0.00;95.30
1307;DHT22;646;48.696;9.114;2023-02-28T07:33:34;0.20;95.60
1307;DHT22;646;48.696;9.114;2023-02-28T07:36:06;0.30;95.20
1307;DHT22;646;48.696;9.114;2023-02-28T07:38:36;0.10;93.90
1307;DHT22;646;48.696;9.114;2023-02-28T07:41:02;0.20;94.40
1307;DHT22;646;48.696;9.114;2023-02-28T07:43:30;0.00;94.00
1307;DHT22;646;48.696;9.114;2023-02-28T07:45:55;0.10;93.80
1307;DHT22;646;48.696;9.114;2023-02-28T07:48:26;0.10;93.20
1307;DHT22;646;48.696;9.114;2023-02-28T07:50:58;0.40;92.80
1307;DHT22;646;48.696;9.114;2023-02-28T07:53:24;0.20;92.60
1307;DHT22;646;48.696;9.114;2023-02-28T07:55:50;0.20;92.10
1307;DHT22;646;48.696;9.114;2023-02-28T07:58:15;0.20;91.60
1307;DHT22;646;48.696;9.114;2023-02-28T08:00:41;0.10;91.40
1307;DHT22;646;48.696;9.114;2023-02-28T08:03:10;0.20;91.80
1307;DHT22;646;48.696;9.114;2023-02-28T08:05:40;0.50;91.50
1307;DHT22;646;48.696;9.114;2023-02-28T08:08:06;0.40;91.30
1307;DHT22;646;48.696;9.114;2023-02-28T08:10:32;0.20;91.30
1307;DHT22;646;48.696;9.114;2023-02-28T08:12:58;0.60;91.40
1307;DHT22;646;48.696;9.114;2023-02-28T08:15:23;0.50;91.20
1307;DHT22;646;48.696;9.114;2023-02-28T08:17:49;0.50;90.50
1307;DHT22;646;48.696;9.114;2023-02-28T08:20:14;0.50;90.30
1307;DHT22;646;48.696;9.114;2023-02-28T08:22:40;0.50;90.50
1307;DHT22;646;48.696;9.114;2023-02-28T08:25:05;0.90;90.10
1307;DHT22;646;48.696;9.114;2023-02-28T08:27:32;0.80;89.00
1307;DHT22;646;48.696;9.114;2023-02-28T08:29:58;0.80;88.70
1307;DHT22;646;48.696;9.114;2023-02-28T08:32:23;0.30;86.60
1307;DHT22;646;48.696;9.114;2023-02-28T08:34:49;0.40;88.50
1307;DHT22;646;48.696;9.114;2023-02-28T08:37:14;0.80;88.80
1307;DHT22;646;48.696;9.114;2023-02-28T08:39:40;0.70;88.80
1307;DHT22;646;48.696;9.114;2023-02-28T08:42:05;0.90;88.00
1307;DHT22;646;48.696;9.114;2023-02-28T08:44:31;1.10;87.20
1307;DHT22;646;48.696;9.114;2023-02-28T08:46:56;1.00;86.40
1307;DHT22;646;48.696;9.114;2023-02-28T08:49:22;0.90;86.30
1307;DHT22;646;48.696;9.114;2023-02-28T08:51:47;1.00;86.10
1307;DHT22;646;48.696;9.114;2023-02-28T08:54:13;1.10;85.80
1307;DHT22;646;48.696;9.114;2023-02-28T08:56:41;1.20;86.20
1307;DHT22;646;48.696;9.114;2023-02-28T08:59:08;1.10;84.50
1307;DHT22;646;48.696;9.114;2023-02-28T09:01:34;1.20;85.20
1307;DHT22;646;48.696;9.114;2023-02-28T09:04:01;1.30;84.60
1307;DHT22;646;48.696;9.114;2023-02-28T09:06:28;1.20;84.30
1307;DHT22;646;48.696;9.114;2023-02-28T09:08:56;1.40;84.20
1307;DHT22;646;48.696;9.114;2023-02-28T09:11:23;1.40;83.10
1307;DHT22;646;48.696;9.114;2023-02-28T09:13:49;1.30;83.20
1307;DHT22;646;48.696;9.114;2023-02-28T09:16:16;1.40;82.20
1307;DHT22;646;48.696;9.114;2023-02-28T09:18:42;1.40;81.20
1307;DHT22;646;48.696;9.114;2023-02-28T09:21:09;1.60;81.70
1307;DHT22;646;48.696;9.114;2023-02-28T09:23:36;1.40;81.50
1307;DHT22;646;48.696;9.114;2023-02-28T09:26:05;1.40;80.60
1307;DHT22;646;48.696;9.114;2023-02-28T09:28:31;1.50;81.70
1307;DHT22;646;48.696;9.114;2023-02-28T09:30:56;1.50;82.00
1307;DHT22;646;48.696;9.114;2023-02-28T09:33:25;1.80;81.80
1307;DHT22;646;48.696;9.114;2023-02-28T09:35:57;1.50;80.70
1307;DHT22;646;48.696;9.114;2023-02-28T09:38:23;1.60;79.20
1307;DHT22;646;48.696;9.114;2023-02-28T09:40:50;1.90;80.80
1307;DHT22;646;48.696;9.114;2023-02-28T09:43:18;1.60;79.60
1307;DHT22;646;48.696;9.114;2023-02-28T09:45:53;1.80;78.70
1307;DHT22;646;48.696;9.114;2023-02-28T09:48:27;1.80;78.40
1307;DHT22;646;48.696;9.114;2023-02-28T09:51:00;1.70;78.20
1307;DHT22;646;48.696;9.114;2023-02-28T09:53:36;1.50;77.90
1307;DHT22;646;48.696;9.114;2023-02-28T09:56:20;1.70;77.80
1307;DHT22;646;48.696;9.114;2023-02-28T09:58:57;1.80;78.70
1307;DHT22;646;48.696;9.114;2023-02-28T10:01:39;1.80;78.30
1307;DHT22;646;48.696;9.114;2023-02-28T10:07:16;1.90;77.30
1307;DHT22;646;48.696;9.114;2023-02-28T10:09:47;2.30;77.50
1307;DHT22;646;48.696;9.114;2023-02-28T10:12:16;1.80;74.30
1307;DHT22;646;48.696;9.114;2023-02-28T10:14:45;2.10;76.10
1307;DHT22;646;48.696;9.114;2023-02-28T10:17:13;2.10;75.70
1307;DHT22;646;48.696;9.114;2023-02-28T10:20:01;1.80;75.00
1307;DHT22;646;48.696;9.114;2023-02-28T10:22:38;1.90;75.20
1307;DHT22;646;48.696;9.114;2023-02-28T10:25:19;2.20;74.50
1307;DHT22;646;48.696;9.114;2023-02-28T10:27:44;2.10;74.10
1307;DHT22;646;48.696;9.114;2023-02-28T10:30:11;2.40;73.60
1307;DHT22;646;48.696;9.114;2023-02-28T10:32:39;2.80;72.20
1307;DHT22;646;48.696;9.114;2023-02-28T10:35:19;3.20;71.10
1307;DHT22;646;48.696;9.114;2023-02-28T10:37:48;3.10;69.40
1307;DHT22;646;48.696;9.114;2023-02-28T10:43:02;3.10;66.70
1307;DHT22;646;48.696;9.114;2023-02-28T10:45:29;3.30;68.30
1307;DHT22;646;48.696;9.114;2023-02-28T10:48:02;3.40;65.60
1307;DHT22;646;48.696;9.114;2023-02-28T10:50:51;3.70;65.80
1307;DHT22;646;48.696;9.114;2023-02-28T10:53:32;3.80;63.70
1307;DHT22;646;48.696;9.114;2023-02-28T10:58:25;4.00;62.70
1307;DHT22;646;48.696;9.114;2023-02-28T11:00:52;4.10;62.70
1307;DHT22;646;48.696;9.114;2023-02-28T11:03:25;4.30;62.50
1307;DHT22;646;48.696;9.114;2023-02-28T11:05:51;4.40;62.40
1307;DHT22;646;48.696;9.114;2023-02-28T11:08:17;4.90;59.70
1307;DHT22;646;48.696;9.114;2023-02-28T11:10:48;5.60;59.80
1307;DHT22;646;48.696;9.114;2023-02-28T11:13:21;6.60;57.30
1307;DHT22;646;48.696;9.114;2023-02-28T11:15:58;7.40;56.60
1307;DHT22;646;48.696;9.114;2023-02-28T11:18:36;8.80;52.20
1307;DHT22;646;48.696;9.114;2023-02-28T11:21:03;9.90;49.00
1307;DHT22;646;48.696;9.114;2023-02-28T11:23:30;10.40;46.00
1307;DHT22;646;48.696;9.114;2023-02-28T11:26:03;11.10;44.50
1307;DHT22;646;48.696;9.114;2023-02-28T11:28:39;12.60;43.30
1307;DHT22;646;48.696;9.114;2023-02-28T11:36:22;12.20;38.10
1307;DHT22;646;48.696;9.114;2023-02-28T11:38:54;13.10;39.10
1307;DHT22;646;48.696;9.114;2023-02-28T11:42:07;14.00;36.30
1307;DHT22;646;48.696;9.114;2023-02-28T11:47:12;16.20;34.00
1307;DHT22;646;48.696;9.114;2023-02-28T11:50:14;17.50;32.00
1307;DHT22;646;48.696;9.114;2023-02-28T11:52:52;18.20;29.60
1307;DHT22;646;48.696;9.114;2023-02-28T11:55:33;18.10;29.10
1307;DHT22;646;48.696;9.114;2023-02-28T12:01:06;17.50;27.60
1307;DHT22;646;48.696;9.114;2023-02-28T12:03:43;17.40;29.00
1307;DHT22;646;48.696;9.114;2023-02-28T12:06:17;16.90;30.00
1307;DHT22;646;48.696;9.114;2023-02-28T12:12:07;19.10;29.00
1307;DHT22;646;48.696;9.114;2023-02-28T12:23:15;16.00;30.40
1307;DHT22;646;48.696;9.114;2023-02-28T12:28:30;16.60;30.60
1307;DHT22;646;48.696;9.114;2023-02-28T12:31:11;16.60;30.30
1307;DHT22;646;48.696;9.114;2023-02-28T12:33:43;16.10;29.90
1307;DHT22;646;48.696;9.114;2023-02-28T12:36:12;14.20;30.80
1307;DHT22;646;48.696;9.114;2023-02-28T12:38:44;14.90;33.70
1307;DHT22;646;48.696;9.114;2023-02-28T12:41:15;15.80;33.20
1307;DHT22;646;48.696;9.114;2023-02-28T12:43:45;16.00;31.50
1307;DHT22;646;48.696;9.114;2023-02-28T12:46:23;17.00;30.20
1307;DHT22;646;48.696;9.114;2023-02-28T12:48:53;17.50;29.40
1307;DHT22;646;48.696;9.114;2023-02-28T12:51:22;15.50;29.40
1307;DHT22;646;48.696;9.114;2023-02-28T12:56:54;13.90;32.70
1307;DHT22;646;48.696;9.114;2023-02-28T12:59:41;13.50;32.80
1307;DHT22;646;48.696;9.114;2023-02-28T13:10:13;18.60;29.50
1307;DHT22;646;48.696;9.114;2023-02-28T13:12:52;19.30;28.90
1307;DHT22;646;48.696;9.114;2023-02-28T13:15:27;19.60;28.40
1307;DHT22;646;48.696;9.114;2023-02-28T13:17:56;20.20;27.10
1307;DHT22;646;48.696;9.114;2023-02-28T13:20:37;21.30;27.20
1307;DHT22;646;48.696;9.114;2023-02-28T13:23:41;21.90;26.50
1307;DHT22;646;48.696;9.114;2023-02-28T13:26:22;22.50;25.50
1307;DHT22;646;48.696;9.114;2023-02-28T13:31:14;21.30;24.00
1307;DHT22;646;48.696;9.114;2023-02-28T13:38:47;20.50;26.40
1307;DHT22;646;48.696;9.114;2023-02-28T13:44:06;21.50;26.20
1307;DHT22;646;48.696;9.114;2023-02-28T13:46:34;22.10;24.40
1307;DHT22;646;48.696;9.114;2023-02-28T13:51:50;21.40;24.50
1307;DHT22;646;48.696;9.114;2023-02-28T14:00:23;19.40;25.00
1307;DHT22;646;48.696;9.114;2023-02-28T14:03:26;19.90;26.00
1307;DHT22;646;48.696;9.114;2023-02-28T14:09:06;19.80;26.20
1307;DHT22;646;48.696;9.114;2023-02-28T14:11:37;19.80;25.70
1307;DHT22;646;48.696;9.114;2023-02-28T14:14:03;19.70;26.50
1307;DHT22;646;48.696;9.114;2023-02-28T14:16:45;20.10;26.50
1307;DHT22;646;48.696;9.114;2023-02-28T14:19:22;21.10;25.30
1307;DHT22;646;48.696;9.114;2023-02-28T14:33:32;18.60;25.80
1307;DHT22;646;48.696;9.114;2023-02-28T14:39:24;18.70;26.70
1307;DHT22;646;48.696;9.114;2023-02-28T14:41:50;19.10;27.60
1307;DHT22;646;48.696;9.114;2023-02-28T14:44:26;18.70;26.50
1307;DHT22;646;48.696;9.114;2023-02-28T14:47:02;19.20;27.10
1307;DHT22;646;48.696;9.114;2023-02-28T14:49:36;18.50;26.60
1307;DHT22;646;48.696;9.114;2023-02-28T14:52:17;18.50;26.90
1307;DHT22;646;48.696;9.114;2023-02-28T14:54:44;17.80;27.40
1307;DHT22;646;48.696;9.114;2023-02-28T14:57:28;17.60;28.00
1307;DHT22;646;48.696;9.114;2023-02-28T15:00:16;17.50;28.50
1307;DHT22;646;48.696;9.114;2023-02-28T15:02:45;17.40;28.30
1307;DHT22;646;48.696;9.114;2023-02-28T15:07:47;17.20;29.00
1307;DHT22;646;48.696;9.114;2023-02-28T15:10:23;17.70;28.20
1307;DHT22;646;48.696;9.114;2023-02-28T15:15:46;16.70;28.30
1307;DHT22;646;48.696;9.114;2023-02-28T15:18:27;15.40;29.50
1307;DHT22;646;48.696;9.114;2023-02-28T15:21:05;13.70;30.80
1307;DHT22;646;48.696;9.114;2023-02-28T15:23:32;12.80;33.00
1307;DHT22;646;48.696;9.114;2023-02-28T15:25:58;11.60;35.30
1307;DHT22;646;48.696;9.114;2023-02-28T15:28:24;10.30;37.90
1307;DHT22;646;48.696;9.114;2023-02-28T15:30:59;9.80;39.80
1307;DHT22;646;48.696;9.114;2023-02-28T15:33:27;9.50;41.20
1307;DHT22;646;48.696;9.114;2023-02-28T15:36:15;9.40;41.80
1307;DHT22;646;48.696;9.114;2023-02-28T15:38:43;8.90;43.10
1307;DHT22;646;48.696;9.114;2023-02-28T15:41:24;8.40;43.30
1307;DHT22;646;48.696;9.114;2023-02-28T15:44:28;8.40;43.90
1307;DHT22;646;48.696;9.114;2023-02-28T15:47:05;7.90;45.00
1307;DHT22;646;48.696;9.114;2023-02-28T15:49:40;7.30;46.00
1307;DHT22;646;48.696;9.114;2023-02-28T15:52:14;7.10;46.70
1307;DHT22;646;48.696;9.114;2023-02-28T15:54:41;7.00;47.70
1307;DHT22;646;48.696;9.114;2023-02-28T15:57:19;6.80;48.10
1307;DHT22;646;48.696;9.114;2023-02-28T15:59:52;7.00;48.60
1307;DHT22;646;48.696;9.114;2023-02-28T16:02:21;6.70;48.80
1307;DHT22;646;48.696;9.114;2023-02-28T16:07:27;6.20;49.40
1307;DHT22;646;48.696;9.114;2023-02-28T16:09:53;6.40;50.00
1307;DHT22;646;48.696;9.114;2023-02-28T16:12:20;6.10;50.10
1307;DHT22;646;48.696;9.114;2023-02-28T16:14:47;6.00;50.50
1307;DHT22;646;48.696;9.114;2023-02-28T16:17:24;5.80;50.60
1307;DHT22;646;48.696;9.114;2023-02-28T16:19:50;5.90;50.90
1307;DHT22;646;48.696;9.114;2023-02-28T16:22:15;5.60;51.00
1307;DHT22;646;48.696;9.114;2023-02-28T16:24:41;5.80;51.60
1307;DHT22;646;48.696;9.114;2023-02-28T16:27:07;5.70;51.80
1307;DHT22;646;48.696;9.114;2023-02-28T16:29:39;5.50;52.10
1307;DHT22;646;48.696;9.114;2023-02-28T16:32:06;5.40;51.70
1307;DHT22;646;48.696;9.114;2023-02-28T16:34:31;5.20;53.20
1307;DHT22;646;48.696;9.114;2023-02-28T16:36:57;5.40;53.20
1307;DHT22;646;48.696;9.114;2023-02-28T16:39:24;5.10;52.90
1307;DHT22;646;48.696;9.114;2023-02-28T16:41:50;5.20;54.20
1307;DHT22;646;48.696;9.114;2023-02-28T16:44:29;5.10;54.10
1307;DHT22;646;48.696;9.114;2023-02-28T16:46:55;4.90;54.70
1307;DHT22;646;48.696;9.114;2023-02-28T16:49:21;4.70;55.00
1307;DHT22;646;48.696;9.114;2023-02-28T16:51:46;4.40;55.20
1307;DHT22;646;48.696;9.114;2023-02-28T16:54:12;4.60;55.60
1307;DHT22;646;48.696;9.114;2023-02-28T16:56:41;4.50;55.10
1307;DHT22;646;48.696;9.114;2023-02-28T16:59:08;4.20;56.50
1307;DHT22;646;48.696;9.114;2023-02-28T17:01:35;4.00;56.60
1307;DHT22;646;48.696;9.114;2023-02-28T17:04:01;3.80;56.30
1307;DHT22;646;48.696;9.114;2023-02-28T17:06:28;3.60;57.30
1307;DHT22;646;48.696;9.114;2023-02-28T17:08:55;3.60;57.50
1307;DHT22;646;48.696;9.114;2023-02-28T17:11:22;3.60;58.00
1307;DHT22;646;48.696;9.114;2023-02-28T17:13:47;3.40;58.40
1307;DHT22;646;48.696;9.114;2023-02-28T17:16:33;3.40;58.70
1307;DHT22;646;48.696;9.114;2023-02-28T17:19:04;3.30;59.00
1307;DHT22;646;48.696;9.114;2023-02-28T17:21:31;3.20;59.30
1307;DHT22;646;48.696;9.114;2023-02-28T17:23:57;3.10;59.00
1307;DHT22;646;48.696;9.114;2023-02-28T17:26:23;2.90;59.80
1307;DHT22;646;48.696;9.114;2023-02-28T17:28:51;3.20;60.40
1307;DHT22;646;48.696;9.114;2023-02-28T17:31:17;2.90;60.50
1307;DHT22;646;48.696;9.114;2023-02-28T17:33:43;2.90;61.00
1307;DHT22;646;48.696;9.114;2023-02-28T17:36:13;2.80;61.00
1307;DHT22;646;48.696;9.114;2023-02-28T17:38:39;2.70;62.20
1307;DHT22;646;48.696;9.114;2023-02-28T17:41:05;2.50;61.80
1307;DHT22;646;48.696;9.114;2023-02-28T17:43:30;2.70;62.10
1307;DHT22;646;48.696;9.114;2023-02-28T17:45:56;2.50;63.00
1307;DHT22;646;48.696;9.114;2023-02-28T17:48:21;2.70;63.70
1307;DHT22;646;48.696;9.114;2023-02-28T17:50:47;2.60;63.60
1307;DHT22;646;48.696;9.114;2023-02-28T17:53:13;2.40;62.10
1307;DHT22;646;48.696;9.114;2023-02-28T17:55:38;2.40;63.00
1307;DHT22;646;48.696;9.114;2023-02-28T17:58:04;2.10;63.80
1307;DHT22;646;48.696;9.114;2023-02-28T18:00:30;2.20;63.20
1307;DHT22;646;48.696;9.114;2023-02-28T18:02:58;2.00;64.70
1307;DHT22;646;48.696;9.114;2023-02-28T18:05:24;2.30;65.10
1307;DHT22;646;48.696;9.114;2023-02-28T18:07:49;2.30;65.90
1307;DHT22;646;48.696;9.114;2023-02-28T18:10:18;1.80;65.30
1307;DHT22;646;48.696;9.114;2023-02-28T18:12:48;2.00;65.80
1307;DHT22;646;48.696;9.114;2023-02-28T18:15:15;1.80;66.10
1307;DHT22;646;48.696;9.114;2023-02-28T18:17:45;2.00;65.70
1307;DHT22;646;48.696;9.114;2023-02-28T18:20:11;2.00;66.70
1307;DHT22;646;48.696;9.114;2023-02-28T18:22:39;1.60;66.60
1307;DHT22;646;48.696;9.114;2023-02-28T18:25:07;1.70;67.00
1307;DHT22;646;48.696;9.114;2023-02-28T18:27:37;1.60;67.40
1307;DHT22;646;48.696;9.114;2023-02-28T18:30:04;1.50;67.80
1307;DHT22;646;48.696;9.114;2023-02-28T18:32:30;1.60;68.20
1307;DHT22;646;48.696;9.114;2023-02-28T18:34:56;1.50;69.00
1307;DHT22;646;48.696;9.114;2023-02-28T18:37:21;1.60;68.90
1307;DHT22;646;48.696;9.114;2023-02-28T18:39:47;1.50;68.90
1307;DHT22;646;48.696;9.114;2023-02-28T18:42:12;1.70;69.20
1307;DHT22;646;48.696;9.114;2023-02-28T18:44:38;1.40;68.00
1307;DHT22;646;48.696;9.114;2023-02-28T18:47:04;1.40;69.00